createdAt,value
2022-07-26T00:00:32.802Z,26.27
2022-07-26T00:01:32.870Z,26.34
2022-07-26T00:02:32.833Z,26.24
2022-07-26T00:03:32.775Z,26.23
2022-07-26T00:04:32.792Z,26.19
2022-07-26T00:05:32.746Z,26.19
2022-07-26T00:06:32.740Z,26.15
2022-07-26T00:07:36.625Z,26.20
2022-07-26T00:08:32.718Z,26.16
2022-07-26T00:09:32.730Z,26.12
2022-07-26T00:10:32.696Z,26.12
2022-07-26T00:11:32.686Z,26.05
2022-07-26T00:12:32.679Z,26.05
2022-07-26T00:13:32.662Z,26.05
2022-07-26T00:14:32.682Z,26.07
2022-07-26T00:15:32.647Z,26.01
2022-07-26T00:16:32.723Z,25.98
2022-07-26T00:17:32.622Z,26.00
2022-07-26T00:18:32.610Z,26.03
2022-07-26T00:19:32.630Z,25.98
2022-07-26T00:20:32.591Z,25.93
2022-07-26T00:21:32.580Z,25.92
2022-07-26T00:22:32.570Z,25.90
2022-07-26T00:23:32.558Z,25.89
2022-07-26T00:24:35.535Z,25.88
2022-07-26T00:25:32.541Z,25.88
2022-07-26T00:26:32.524Z,25.86
2022-07-26T00:27:32.514Z,25.86
2022-07-26T00:28:32.545Z,25.74
2022-07-26T00:29:32.496Z,25.83
2022-07-26T00:30:32.488Z,25.77
2022-07-26T00:31:32.568Z,25.85
2022-07-26T00:32:32.468Z,25.78
2022-07-26T00:33:32.483Z,25.73
2022-07-26T00:34:32.441Z,25.75
2022-07-26T00:35:32.432Z,25.77
2022-07-26T00:36:32.445Z,25.68
2022-07-26T00:37:32.412Z,25.71
2022-07-26T00:38:32.401Z,25.67
2022-07-26T00:39:32.386Z,25.67
2022-07-26T00:40:32.382Z,25.64
2022-07-26T00:41:32.399Z,25.63
2022-07-26T00:42:32.357Z,25.67
2022-07-26T00:43:32.351Z,25.63
2022-07-26T00:44:32.389Z,25.59
2022-07-26T00:45:32.326Z,25.59
2022-07-26T00:46:32.445Z,25.61
2022-07-26T00:47:32.302Z,25.56
2022-07-26T00:48:32.364Z,25.55
2022-07-26T00:49:32.281Z,25.63
2022-07-26T00:50:32.343Z,25.58
2022-07-26T00:51:32.261Z,25.58
2022-07-26T00:52:32.249Z,25.59
2022-07-26T00:53:32.239Z,25.53
2022-07-26T00:54:32.231Z,25.45
2022-07-26T00:55:32.261Z,25.49
2022-07-26T00:56:32.208Z,25.48
2022-07-26T00:57:32.199Z,25.43
2022-07-26T00:58:32.197Z,25.48
2022-07-26T00:59:32.270Z,25.52
2022-07-26T01:00:32.169Z,25.43
2022-07-26T01:01:32.308Z,25.43
2022-07-26T01:02:32.259Z,25.43
2022-07-26T01:03:36.466Z,25.43
2022-07-26T01:04:33.168Z,25.38
2022-07-26T01:05:32.119Z,25.36
2022-07-26T01:06:32.108Z,25.36
2022-07-26T01:07:32.090Z,25.33
2022-07-26T01:08:32.086Z,25.36
2022-07-26T01:09:32.110Z,25.36
2022-07-26T01:10:32.058Z,25.33
2022-07-26T01:11:32.053Z,25.28
2022-07-26T01:12:32.042Z,25.27
2022-07-26T01:13:35.280Z,25.26
2022-07-26T01:14:32.050Z,25.36
2022-07-26T01:15:32.011Z,25.30
2022-07-26T01:16:32.051Z,25.21
2022-07-26T01:17:31.992Z,25.19
2022-07-26T01:18:31.982Z,25.15
2022-07-26T01:19:31.995Z,25.18
2022-07-26T01:20:31.966Z,25.16
2022-07-26T01:21:31.949Z,25.14
2022-07-26T01:22:31.940Z,25.18
2022-07-26T01:23:31.924Z,25.14
2022-07-26T01:24:31.948Z,25.18
2022-07-26T01:25:31.905Z,25.12
2022-07-26T01:26:31.895Z,25.18
2022-07-26T01:27:34.151Z,25.12
2022-07-26T01:28:31.874Z,25.09
2022-07-26T01:29:35.357Z,25.08
2022-07-26T01:30:31.880Z,25.08
2022-07-26T01:31:31.975Z,25.04
2022-07-26T01:32:31.826Z,25.01
2022-07-26T01:33:31.815Z,25.04
2022-07-26T01:34:31.811Z,25.01
2022-07-26T01:35:31.833Z,24.96
2022-07-26T01:36:31.800Z,24.96
2022-07-26T01:37:31.770Z,24.90
2022-07-26T01:38:31.765Z,25.00
2022-07-26T01:39:31.764Z,24.97
2022-07-26T01:40:31.769Z,24.96
2022-07-26T01:41:37.921Z,24.94
2022-07-26T01:42:32.723Z,24.94
2022-07-26T01:43:31.708Z,24.91
2022-07-26T01:44:31.696Z,24.91
2022-07-26T01:45:31.739Z,24.90
2022-07-26T01:46:31.851Z,24.91
2022-07-26T01:47:31.664Z,24.89
2022-07-26T01:48:31.686Z,24.82
2022-07-26T01:49:31.644Z,24.81
2022-07-26T01:50:31.655Z,24.86
2022-07-26T01:51:31.655Z,24.85
2022-07-26T01:52:31.613Z,24.81
2022-07-26T01:53:31.597Z,24.79
2022-07-26T01:54:31.599Z,24.76
2022-07-26T01:55:31.611Z,24.79
2022-07-26T01:56:31.613Z,24.79
2022-07-26T01:57:31.559Z,24.79
2022-07-26T01:58:31.558Z,24.82
2022-07-26T01:59:31.531Z,24.78
2022-07-26T02:00:31.553Z,24.79
2022-07-26T02:01:38.895Z,24.71
2022-07-26T02:02:32.615Z,24.71
2022-07-26T02:03:31.490Z,24.76
2022-07-26T02:04:31.482Z,24.70
2022-07-26T02:05:31.495Z,24.71
2022-07-26T02:06:31.464Z,24.65
2022-07-26T02:07:31.447Z,24.63
2022-07-26T02:08:31.439Z,24.62
2022-07-26T02:09:33.019Z,24.60
2022-07-26T02:10:32.467Z,24.60
2022-07-26T02:11:31.411Z,24.65
2022-07-26T02:12:31.392Z,24.63
2022-07-26T02:13:31.392Z,24.51
2022-07-26T02:14:31.373Z,24.55
2022-07-26T02:15:31.438Z,24.65
2022-07-26T02:16:31.381Z,24.53
2022-07-26T02:17:31.347Z,24.63
2022-07-26T02:18:31.339Z,24.59
2022-07-26T02:19:31.325Z,24.59
2022-07-26T02:20:31.308Z,24.58
2022-07-26T02:21:31.331Z,24.53
2022-07-26T02:22:31.287Z,24.47
2022-07-26T02:23:31.274Z,24.48
2022-07-26T02:24:31.260Z,24.51
2022-07-26T02:25:31.254Z,24.44
2022-07-26T02:26:31.279Z,24.48
2022-07-26T02:27:31.227Z,24.53
2022-07-26T02:28:31.216Z,24.48
2022-07-26T02:29:31.210Z,24.45
2022-07-26T02:30:31.199Z,24.43
2022-07-26T02:31:32.204Z,24.40
2022-07-26T02:32:31.211Z,24.47
2022-07-26T02:33:31.165Z,24.37
2022-07-26T02:34:33.976Z,24.40
2022-07-26T02:35:31.140Z,24.38
2022-07-26T02:36:31.161Z,24.38
2022-07-26T02:37:31.128Z,24.34
2022-07-26T02:38:32.112Z,24.22
2022-07-26T02:39:31.097Z,24.31
2022-07-26T02:40:31.086Z,24.31
2022-07-26T02:41:31.131Z,24.33
2022-07-26T02:42:31.065Z,24.25
2022-07-26T02:43:31.054Z,24.25
2022-07-26T02:44:31.060Z,24.25
2022-07-26T02:45:31.033Z,24.22
2022-07-26T02:46:31.116Z,24.25
2022-07-26T02:47:31.013Z,24.23
2022-07-26T02:48:31.255Z,24.23
2022-07-26T02:49:30.997Z,24.23
2022-07-26T02:50:30.981Z,24.25
2022-07-26T02:51:30.969Z,24.18
2022-07-26T02:52:30.996Z,24.15
2022-07-26T02:53:30.951Z,24.19
2022-07-26T02:54:30.931Z,24.15
2022-07-26T02:55:30.925Z,24.13
2022-07-26T02:56:31.030Z,24.08
2022-07-26T02:57:30.902Z,24.18
2022-07-26T02:58:31.887Z,24.21
2022-07-26T02:59:30.884Z,24.15
2022-07-26T03:00:30.894Z,24.01
2022-07-26T03:01:30.963Z,24.06
2022-07-26T03:02:30.938Z,24.03
2022-07-26T03:03:30.841Z,24.03
2022-07-26T03:04:31.829Z,24.06
2022-07-26T03:05:30.818Z,24.01
2022-07-26T03:06:30.821Z,24.03
2022-07-26T03:07:30.821Z,23.98
2022-07-26T03:08:30.784Z,24.01
2022-07-26T03:09:30.776Z,23.98
2022-07-26T03:10:30.762Z,23.91
2022-07-26T03:11:30.751Z,23.97
2022-07-26T03:12:30.773Z,23.89
2022-07-26T03:13:30.731Z,23.88
2022-07-26T03:14:30.716Z,23.94
2022-07-26T03:15:30.783Z,23.92
2022-07-26T03:16:30.746Z,23.94
2022-07-26T03:17:30.684Z,23.82
2022-07-26T03:18:30.718Z,23.85
2022-07-26T03:19:30.667Z,23.84
2022-07-26T03:20:30.662Z,23.78
2022-07-26T03:21:30.641Z,23.84
2022-07-26T03:22:30.639Z,23.79
2022-07-26T03:23:30.653Z,23.71
2022-07-26T03:24:30.609Z,23.74
2022-07-26T03:25:30.601Z,23.74
2022-07-26T03:26:30.591Z,23.74
2022-07-26T03:27:30.577Z,23.74
2022-07-26T03:28:30.606Z,23.71
2022-07-26T03:29:30.558Z,23.79
2022-07-26T03:30:30.552Z,23.70
2022-07-26T03:31:30.618Z,23.64
2022-07-26T03:32:30.524Z,23.66
2022-07-26T03:33:30.543Z,23.64
2022-07-26T03:34:30.507Z,23.66
2022-07-26T03:35:30.495Z,23.69
2022-07-26T03:36:31.484Z,23.67
2022-07-26T03:37:46.077Z,23.60
2022-07-26T03:38:31.490Z,23.61
2022-07-26T03:39:30.449Z,23.64
2022-07-26T03:40:30.438Z,23.60
2022-07-26T03:41:30.429Z,23.60
2022-07-26T03:42:30.424Z,23.59
2022-07-26T03:43:30.440Z,23.59
2022-07-26T03:44:30.393Z,23.55
2022-07-26T03:45:30.401Z,23.56
2022-07-26T03:46:30.488Z,23.60
2022-07-26T03:47:30.364Z,23.54
2022-07-26T03:48:30.411Z,23.48
2022-07-26T03:49:32.274Z,23.52
2022-07-26T03:50:30.329Z,23.60
2022-07-26T03:51:30.329Z,23.52
2022-07-26T03:52:30.309Z,23.45
2022-07-26T03:53:30.312Z,23.44
2022-07-26T03:54:30.325Z,23.46
2022-07-26T03:55:30.283Z,23.37
2022-07-26T03:56:30.276Z,23.48
2022-07-26T03:57:30.262Z,23.42
2022-07-26T03:58:30.310Z,23.36
2022-07-26T03:59:30.240Z,23.36
2022-07-26T04:00:30.232Z,23.41
2022-07-26T04:01:30.258Z,23.33
2022-07-26T04:02:30.287Z,23.42
2022-07-26T04:03:30.214Z,23.33
2022-07-26T04:04:30.212Z,23.39
2022-07-26T04:05:30.175Z,23.37
2022-07-26T04:06:30.163Z,23.34
2022-07-26T04:07:30.154Z,23.36
2022-07-26T04:08:30.146Z,23.31
2022-07-26T04:09:30.330Z,23.29
2022-07-26T04:10:30.124Z,23.29
2022-07-26T04:11:30.130Z,23.34
2022-07-26T04:12:30.099Z,23.21
2022-07-26T04:13:33.269Z,23.31
2022-07-26T04:14:30.080Z,23.18
2022-07-26T04:15:30.078Z,23.37
2022-07-26T04:16:30.126Z,23.29
2022-07-26T04:17:30.048Z,23.37
2022-07-26T04:18:30.067Z,23.34
2022-07-26T04:19:30.033Z,23.26
2022-07-26T04:20:30.015Z,23.28
2022-07-26T04:21:30.001Z,23.26
2022-07-26T04:22:29.997Z,23.25
2022-07-26T04:23:30.023Z,23.26
2022-07-26T04:24:29.970Z,23.29
2022-07-26T04:25:41.023Z,23.22
2022-07-26T04:26:30.953Z,23.23
2022-07-26T04:27:29.943Z,23.25
2022-07-26T04:28:29.961Z,23.22
2022-07-26T04:29:29.922Z,23.17
2022-07-26T04:30:29.954Z,23.15
2022-07-26T04:31:29.916Z,23.18
2022-07-26T04:32:30.886Z,23.22
2022-07-26T04:33:29.922Z,23.18
2022-07-26T04:34:29.870Z,23.13
2022-07-26T04:35:29.860Z,23.11
2022-07-26T04:36:29.849Z,23.13
2022-07-26T04:37:29.846Z,23.14
2022-07-26T04:38:29.872Z,23.18
2022-07-26T04:39:29.817Z,23.14
2022-07-26T04:40:29.813Z,23.11
2022-07-26T04:41:29.801Z,23.11
2022-07-26T04:42:29.785Z,23.13
2022-07-26T04:43:29.800Z,23.04
2022-07-26T04:44:29.795Z,23.13
2022-07-26T04:45:29.752Z,23.11
2022-07-26T04:46:29.787Z,23.06
2022-07-26T04:47:29.733Z,23.04
2022-07-26T04:48:29.782Z,23.13
2022-07-26T04:49:29.708Z,23.04
2022-07-26T04:50:29.700Z,23.07
2022-07-26T04:51:29.697Z,23.07
2022-07-26T04:52:29.679Z,23.01
2022-07-26T04:53:29.671Z,23.08
2022-07-26T04:54:29.714Z,23.01
2022-07-26T04:55:29.656Z,22.99
2022-07-26T04:56:29.636Z,22.98
2022-07-26T04:57:29.625Z,22.98
2022-07-26T04:58:29.613Z,22.98
2022-07-26T04:59:32.554Z,22.98
2022-07-26T05:00:29.591Z,23.03
2022-07-26T05:01:29.683Z,23.04
2022-07-26T05:02:29.686Z,22.96
2022-07-26T05:03:29.562Z,22.99
2022-07-26T05:04:29.602Z,22.96
2022-07-26T05:05:29.541Z,22.99
2022-07-26T05:06:29.524Z,23.06
2022-07-26T05:07:29.520Z,22.99
2022-07-26T05:08:29.510Z,23.01
2022-07-26T05:09:29.529Z,23.01
2022-07-26T05:10:29.487Z,23.03
2022-07-26T05:11:29.474Z,22.93
2022-07-26T05:12:29.467Z,23.03
2022-07-26T05:13:30.596Z,22.88
2022-07-26T05:14:29.466Z,22.98
2022-07-26T05:15:35.287Z,23.04
2022-07-26T05:16:30.467Z,23.06
2022-07-26T05:17:29.410Z,22.96
2022-07-26T05:18:29.418Z,23.01
2022-07-26T05:19:29.450Z,22.89
2022-07-26T05:20:29.387Z,22.96
2022-07-26T05:21:29.365Z,22.95
2022-07-26T05:22:29.360Z,22.99
2022-07-26T05:23:29.344Z,22.98
2022-07-26T05:24:29.394Z,22.95
2022-07-26T05:25:29.327Z,22.99
2022-07-26T05:26:29.309Z,22.86
2022-07-26T05:27:29.309Z,22.96
2022-07-26T05:28:29.322Z,23.01
2022-07-26T05:29:29.277Z,22.93
2022-07-26T05:30:29.343Z,22.96
2022-07-26T05:31:29.378Z,23.01
2022-07-26T05:32:29.252Z,22.93
2022-07-26T05:33:29.264Z,23.01
2022-07-26T05:34:29.232Z,22.98
2022-07-26T05:35:29.219Z,22.95
2022-07-26T05:36:29.202Z,22.96
2022-07-26T05:37:29.192Z,23.04
2022-07-26T05:38:29.212Z,23.01
2022-07-26T05:39:29.184Z,22.98
2022-07-26T05:40:29.167Z,22.99
2022-07-26T05:41:29.168Z,23.04
2022-07-26T05:42:29.140Z,23.07
2022-07-26T05:43:41.464Z,23.06
2022-07-26T05:44:30.122Z,23.06
2022-07-26T05:45:29.145Z,22.99
2022-07-26T05:46:29.144Z,23.06
2022-07-26T05:47:29.088Z,23.11
2022-07-26T05:48:29.161Z,23.11
2022-07-26T05:49:29.073Z,23.07
2022-07-26T05:50:30.054Z,23.11
2022-07-26T05:51:29.040Z,23.08
2022-07-26T05:52:29.029Z,23.06
2022-07-26T05:53:29.058Z,23.08
2022-07-26T05:54:29.010Z,23.10
2022-07-26T05:55:29.003Z,23.14
2022-07-26T05:56:28.983Z,23.14
2022-07-26T05:57:28.985Z,23.11
2022-07-26T05:58:29.000Z,23.15
2022-07-26T05:59:28.954Z,23.08
2022-07-26T06:00:28.957Z,23.10
2022-07-26T06:01:28.938Z,23.11
2022-07-26T06:02:29.043Z,23.18
2022-07-26T06:03:28.901Z,23.21
2022-07-26T06:04:28.954Z,23.15
2022-07-26T06:05:28.893Z,23.15
2022-07-26T06:06:28.886Z,23.22
2022-07-26T06:07:28.874Z,23.18
2022-07-26T06:08:28.899Z,23.22
2022-07-26T06:09:28.849Z,23.25
2022-07-26T06:10:28.835Z,23.22
2022-07-26T06:11:28.826Z,23.25
2022-07-26T06:12:28.814Z,23.25
2022-07-26T06:13:28.833Z,23.18
2022-07-26T06:14:28.795Z,23.34
2022-07-26T06:15:28.785Z,23.34
2022-07-26T06:16:28.775Z,23.28
2022-07-26T06:17:28.834Z,23.25
2022-07-26T06:18:28.775Z,23.36
2022-07-26T06:19:28.747Z,23.31
2022-07-26T06:20:28.723Z,23.33
2022-07-26T06:21:28.718Z,23.29
2022-07-26T06:22:28.707Z,23.36
2022-07-26T06:23:33.982Z,23.39
2022-07-26T06:24:29.685Z,23.39
2022-07-26T06:25:28.672Z,23.48
2022-07-26T06:26:28.660Z,23.46
2022-07-26T06:27:28.684Z,23.44
2022-07-26T06:28:28.637Z,23.45
2022-07-26T06:29:32.269Z,23.45
2022-07-26T06:30:28.617Z,23.48
2022-07-26T06:31:28.653Z,23.42
2022-07-26T06:32:28.626Z,23.51
2022-07-26T06:33:28.588Z,23.59
2022-07-26T06:34:28.574Z,23.52
2022-07-26T06:35:28.563Z,23.55
2022-07-26T06:36:30.822Z,23.56
2022-07-26T06:37:28.571Z,23.61
2022-07-26T06:38:28.530Z,23.64
2022-07-26T06:39:28.525Z,23.63
2022-07-26T06:40:28.510Z,23.59
2022-07-26T06:41:28.497Z,23.60
2022-07-26T06:42:30.304Z,23.74
2022-07-26T06:43:28.477Z,23.73
2022-07-26T06:44:28.464Z,23.73
2022-07-26T06:45:28.450Z,23.78
2022-07-26T06:46:28.488Z,23.74
2022-07-26T06:47:28.735Z,23.73
2022-07-26T06:48:28.418Z,23.71
2022-07-26T06:49:28.526Z,23.76
2022-07-26T06:50:28.471Z,23.71
2022-07-26T06:51:28.385Z,23.73
2022-07-26T06:52:28.394Z,23.84
2022-07-26T06:53:30.557Z,23.85
2022-07-26T06:54:28.380Z,23.86
2022-07-26T06:55:28.341Z,23.92
2022-07-26T06:56:28.334Z,23.92
2022-07-26T06:57:28.319Z,23.91
2022-07-26T06:58:28.337Z,23.97
2022-07-26T06:59:28.301Z,23.94
2022-07-26T07:00:28.291Z,24.01
2022-07-26T07:01:59.304Z,24.00
2022-07-26T07:02:29.269Z,24.00
2022-07-26T07:03:28.284Z,24.00
2022-07-26T07:04:28.331Z,24.03
2022-07-26T07:05:31.167Z,24.07
2022-07-26T07:06:28.225Z,24.06
2022-07-26T07:07:28.254Z,24.15
2022-07-26T07:08:28.202Z,24.18
2022-07-26T07:09:28.193Z,24.16
2022-07-26T07:10:28.185Z,24.19
2022-07-26T07:11:28.166Z,24.22
2022-07-26T07:12:28.165Z,24.21
2022-07-26T07:13:28.180Z,24.18
2022-07-26T07:14:28.139Z,24.25
2022-07-26T07:15:28.130Z,24.23
2022-07-26T07:16:28.183Z,24.34
2022-07-26T07:17:28.108Z,24.33
2022-07-26T07:18:28.262Z,24.31
2022-07-26T07:19:28.095Z,24.41
2022-07-26T07:20:28.074Z,24.41
2022-07-26T07:21:28.060Z,24.41
2022-07-26T07:22:28.062Z,24.41
2022-07-26T07:23:28.073Z,24.51
2022-07-26T07:24:28.034Z,24.55
2022-07-26T07:25:30.732Z,24.53
2022-07-26T07:26:28.012Z,24.48
2022-07-26T07:27:27.997Z,24.58
2022-07-26T07:28:28.022Z,24.63
2022-07-26T07:29:27.979Z,24.68
2022-07-26T07:30:28.177Z,24.62
2022-07-26T07:31:30.279Z,24.63
2022-07-26T07:32:28.014Z,24.65
2022-07-26T07:33:36.527Z,24.66
2022-07-26T07:34:28.922Z,24.75
2022-07-26T07:35:31.605Z,24.76
2022-07-26T07:36:27.900Z,24.79
2022-07-26T07:37:27.931Z,24.81
2022-07-26T07:38:28.878Z,24.82
2022-07-26T07:39:34.976Z,24.79
2022-07-26T07:40:30.063Z,24.84
2022-07-26T07:41:27.848Z,24.86
2022-07-26T07:42:27.869Z,24.94
2022-07-26T07:43:27.826Z,24.90
2022-07-26T07:44:27.825Z,24.94
2022-07-26T07:45:27.815Z,24.96
2022-07-26T07:46:27.836Z,25.03
2022-07-26T07:47:27.945Z,25.09
2022-07-26T07:48:27.796Z,25.08
2022-07-26T07:49:27.788Z,25.11
2022-07-26T07:50:28.513Z,25.14
2022-07-26T07:51:27.738Z,25.18
2022-07-26T07:52:27.732Z,25.22
2022-07-26T07:53:27.762Z,25.21
2022-07-26T07:54:27.713Z,25.21
2022-07-26T07:55:43.857Z,25.28
2022-07-26T07:56:28.693Z,25.37
2022-07-26T07:57:27.679Z,25.36
2022-07-26T07:58:28.146Z,25.40
2022-07-26T07:59:27.696Z,25.38
2022-07-26T08:00:27.839Z,25.46
2022-07-26T08:01:40.210Z,25.49
2022-07-26T08:02:28.627Z,25.51
2022-07-26T08:03:38.767Z,25.48
2022-07-26T08:04:28.706Z,25.55
2022-07-26T08:05:27.589Z,25.61
2022-07-26T08:06:27.583Z,25.63
2022-07-26T08:07:33.018Z,25.66
2022-07-26T08:08:28.565Z,25.70
2022-07-26T08:09:28.749Z,25.68
2022-07-26T08:10:29.311Z,25.66
2022-07-26T08:11:30.014Z,25.71
2022-07-26T08:12:27.525Z,25.77
2022-07-26T08:13:27.508Z,25.85
2022-07-26T08:14:27.498Z,25.85
2022-07-26T08:15:29.301Z,25.78
2022-07-26T08:16:27.606Z,25.78
2022-07-26T08:17:27.468Z,25.85
2022-07-26T08:18:27.554Z,25.92
2022-07-26T08:19:42.275Z,25.89
2022-07-26T08:20:28.435Z,25.93
2022-07-26T08:21:28.144Z,26.00
2022-07-26T08:22:27.414Z,25.98
2022-07-26T08:23:27.435Z,26.07
2022-07-26T08:24:27.396Z,26.07
2022-07-26T08:25:27.385Z,26.07
2022-07-26T08:26:27.376Z,26.12
2022-07-26T08:27:27.390Z,26.12
2022-07-26T08:28:47.936Z,26.10
2022-07-26T08:29:28.342Z,26.24
2022-07-26T08:30:27.326Z,26.15
2022-07-26T08:31:27.413Z,26.21
2022-07-26T08:32:27.307Z,26.19
2022-07-26T08:33:27.374Z,26.27
2022-07-26T08:34:27.299Z,26.31
2022-07-26T08:35:27.272Z,26.31
2022-07-26T08:36:32.137Z,26.39
2022-07-26T08:37:28.258Z,26.33
2022-07-26T08:38:27.269Z,26.31
2022-07-26T08:39:27.234Z,26.38
2022-07-26T08:40:27.225Z,26.43
2022-07-26T08:41:27.215Z,26.42
2022-07-26T08:42:27.202Z,26.49
2022-07-26T08:43:27.216Z,26.49
2022-07-26T08:44:27.187Z,26.51
2022-07-26T08:45:27.174Z,26.51
2022-07-26T08:46:28.240Z,26.52
2022-07-26T08:47:37.902Z,26.57
2022-07-26T08:48:28.206Z,26.65
2022-07-26T08:49:27.187Z,26.67
2022-07-26T08:50:27.113Z,26.76
2022-07-26T08:51:27.105Z,26.73
2022-07-26T08:52:27.097Z,26.82
2022-07-26T08:53:27.082Z,26.79
2022-07-26T08:54:27.114Z,26.82
2022-07-26T08:55:32.281Z,26.88
2022-07-26T08:56:28.051Z,26.95
2022-07-26T08:57:27.045Z,27.03
2022-07-26T08:58:27.061Z,26.97
2022-07-26T08:59:27.021Z,26.98
2022-07-26T09:00:27.138Z,27.07
2022-07-26T09:01:27.047Z,27.25
2022-07-26T09:02:27.025Z,27.23
2022-07-26T09:03:27.040Z,27.41
2022-07-26T09:04:37.529Z,27.32
2022-07-26T09:05:27.963Z,27.42
2022-07-26T09:06:28.419Z,27.53
2022-07-26T09:07:26.939Z,27.66
2022-07-26T09:08:27.124Z,27.75
2022-07-26T09:09:26.921Z,27.73
2022-07-26T09:10:26.904Z,27.79
2022-07-26T09:11:26.897Z,27.82
2022-07-26T09:12:26.883Z,27.83
2022-07-26T09:13:26.883Z,27.94
2022-07-26T09:14:27.024Z,28.00
2022-07-26T09:15:26.855Z,28.06
2022-07-26T09:16:26.993Z,28.15
2022-07-26T09:17:26.832Z,28.16
2022-07-26T09:18:26.831Z,28.17
2022-07-26T09:19:26.843Z,28.12
2022-07-26T09:20:27.948Z,28.22
2022-07-26T09:21:26.791Z,28.24
2022-07-26T09:22:26.782Z,28.28
2022-07-26T09:23:26.767Z,28.31
2022-07-26T09:24:26.791Z,28.28
2022-07-26T09:25:26.748Z,28.32
2022-07-26T09:26:26.738Z,28.40
2022-07-26T09:27:28.311Z,28.38
2022-07-26T09:28:26.723Z,28.40
2022-07-26T09:29:26.737Z,28.40
2022-07-26T09:30:26.696Z,28.43
2022-07-26T09:31:26.748Z,28.38
2022-07-26T09:32:26.678Z,28.49
2022-07-26T09:33:26.790Z,28.50
2022-07-26T09:34:26.684Z,28.49
2022-07-26T09:36:27.636Z,28.53
2022-07-26T09:37:26.620Z,28.53
2022-07-26T09:38:26.622Z,28.61
2022-07-26T09:39:33.963Z,28.71
2022-07-26T09:40:27.588Z,28.74
2022-07-26T09:41:26.579Z,28.71
2022-07-26T09:42:28.999Z,28.71
2022-07-26T09:43:26.554Z,28.84
2022-07-26T09:44:26.552Z,28.89
2022-07-26T09:45:26.588Z,28.89
2022-07-26T09:46:26.619Z,28.84
2022-07-26T09:47:26.517Z,28.94
2022-07-26T09:48:30.228Z,28.93
2022-07-26T09:49:40.100Z,28.98
2022-07-26T09:50:27.599Z,29.03
2022-07-26T09:51:26.500Z,29.06
2022-07-26T09:52:27.462Z,29.04
2022-07-26T09:53:26.451Z,29.03
2022-07-26T09:54:26.449Z,29.09
2022-07-26T09:55:26.471Z,29.04
2022-07-26T09:56:26.424Z,29.09
2022-07-26T09:57:26.408Z,29.10
2022-07-26T09:58:26.403Z,29.09
2022-07-26T09:59:26.420Z,29.09
2022-07-26T10:00:26.655Z,29.13
2022-07-26T10:01:26.443Z,29.13
2022-07-26T10:02:26.470Z,29.13
2022-07-26T10:03:26.350Z,29.21
2022-07-26T10:04:26.363Z,29.21
2022-07-26T10:05:26.330Z,29.19
2022-07-26T10:06:30.373Z,29.19
2022-07-26T10:07:26.304Z,29.25
2022-07-26T10:08:26.297Z,29.18
2022-07-26T10:09:26.398Z,29.28
2022-07-26T10:10:26.295Z,29.37
2022-07-26T10:11:26.269Z,29.40
2022-07-26T10:12:30.427Z,29.59
2022-07-26T10:13:26.240Z,29.58
2022-07-26T10:14:26.230Z,29.63
2022-07-26T10:15:26.258Z,29.74
2022-07-26T10:16:26.223Z,29.70
2022-07-26T10:17:29.202Z,29.81
2022-07-26T10:18:27.187Z,29.80
2022-07-26T10:19:26.175Z,29.86
2022-07-26T10:20:26.192Z,29.86
2022-07-26T10:21:26.160Z,29.92
2022-07-26T10:22:26.157Z,29.95
2022-07-26T10:23:26.168Z,29.91
2022-07-26T10:24:26.121Z,29.91
2022-07-26T10:25:26.116Z,29.92
2022-07-26T10:26:26.101Z,29.87
2022-07-26T10:27:26.194Z,29.91
2022-07-26T10:28:26.088Z,29.91
2022-07-26T10:29:26.373Z,29.93
2022-07-26T10:30:33.323Z,29.91
2022-07-26T10:31:27.118Z,29.89
2022-07-26T10:32:26.072Z,29.91
2022-07-26T10:33:26.024Z,29.91
2022-07-26T10:34:26.016Z,29.91
2022-07-26T10:35:26.006Z,29.99
2022-07-26T10:36:26.039Z,29.92
2022-07-26T10:37:25.982Z,29.93
2022-07-26T10:38:25.977Z,29.92
2022-07-26T10:39:25.962Z,29.95
2022-07-26T10:40:25.956Z,29.93
2022-07-26T10:41:25.968Z,29.87
2022-07-26T10:42:25.943Z,29.93
2022-07-26T10:43:42.479Z,29.89
2022-07-26T10:44:26.915Z,29.91
2022-07-26T10:45:25.946Z,29.96
2022-07-26T10:46:25.924Z,30.03
2022-07-26T10:47:25.882Z,30.03
2022-07-26T10:48:25.865Z,30.13
2022-07-26T10:49:25.860Z,30.20
2022-07-26T10:50:25.852Z,30.26
2022-07-26T10:51:25.875Z,30.26
2022-07-26T10:52:25.828Z,30.45
2022-07-26T10:53:25.822Z,30.53
2022-07-26T10:54:25.804Z,30.59
2022-07-26T10:55:25.793Z,30.65
2022-07-26T10:56:28.714Z,30.65
2022-07-26T10:57:26.771Z,30.74
2022-07-26T10:58:25.764Z,30.74
2022-07-26T10:59:46.057Z,30.78
2022-07-26T11:00:26.767Z,30.92
2022-07-26T11:01:25.783Z,30.96
2022-07-26T11:02:25.764Z,31.02
2022-07-26T11:03:25.712Z,31.04
2022-07-26T11:04:25.704Z,31.08
2022-07-26T11:05:25.746Z,31.12
2022-07-26T11:06:25.679Z,31.24
2022-07-26T11:07:25.675Z,31.24
2022-07-26T11:08:25.665Z,31.39
2022-07-26T11:09:25.649Z,31.34
2022-07-26T11:10:25.643Z,31.46
2022-07-26T11:11:25.711Z,31.54
2022-07-26T11:12:25.643Z,31.59
2022-07-26T11:13:25.651Z,31.70
2022-07-26T11:14:25.609Z,31.66
2022-07-26T11:15:25.591Z,31.70
2022-07-26T11:16:25.669Z,31.81
2022-07-26T11:17:25.585Z,31.79
2022-07-26T11:18:25.589Z,31.79
2022-07-26T11:19:25.549Z,31.81
2022-07-26T11:20:29.561Z,31.94
2022-07-26T11:21:25.532Z,31.90
2022-07-26T11:22:25.524Z,32.01
2022-07-26T11:23:25.840Z,31.99
2022-07-26T11:24:25.498Z,32.02
2022-07-26T11:25:25.490Z,32.02
2022-07-26T11:26:25.479Z,32.09
2022-07-26T11:27:25.470Z,32.06
2022-07-26T11:28:25.656Z,32.11
2022-07-26T11:29:25.451Z,32.06
2022-07-26T11:30:26.438Z,32.05
2022-07-26T11:31:28.934Z,32.06
2022-07-26T11:32:26.588Z,32.16
2022-07-26T11:33:25.403Z,32.04
2022-07-26T11:34:25.426Z,32.06
2022-07-26T11:35:25.385Z,32.08
2022-07-26T11:36:25.375Z,32.09
2022-07-26T11:37:25.368Z,32.14
2022-07-26T11:38:25.355Z,32.04
2022-07-26T11:39:25.370Z,32.08
2022-07-26T11:40:25.332Z,32.05
2022-07-26T11:41:34.563Z,32.08
2022-07-26T11:42:26.316Z,31.98
2022-07-26T11:43:25.306Z,32.05
2022-07-26T11:44:25.477Z,32.01
2022-07-26T11:45:25.290Z,31.86
2022-07-26T11:46:25.320Z,31.87
2022-07-26T11:47:26.607Z,31.95
2022-07-26T11:48:25.248Z,31.94
2022-07-26T11:49:48.994Z,31.95
2022-07-26T11:50:26.232Z,31.75
2022-07-26T11:51:25.217Z,31.86
2022-07-26T11:52:25.865Z,31.84
2022-07-26T11:53:25.205Z,31.76
2022-07-26T11:54:25.226Z,31.74
2022-07-26T11:55:25.179Z,31.71
2022-07-26T11:56:25.172Z,31.71
2022-07-26T11:57:25.159Z,31.70
2022-07-26T11:58:25.145Z,31.67
2022-07-26T11:59:28.359Z,31.64
2022-07-26T12:00:25.126Z,31.60
2022-07-26T12:01:25.116Z,31.71
2022-07-26T12:02:25.103Z,31.61
2022-07-26T12:03:25.092Z,31.59
2022-07-26T12:04:25.259Z,31.59
2022-07-26T12:05:25.179Z,31.57
2022-07-26T12:06:25.064Z,31.57
2022-07-26T12:07:25.055Z,31.57
2022-07-26T12:08:25.036Z,31.60
2022-07-26T12:09:25.082Z,31.51
2022-07-26T12:10:25.014Z,31.51
2022-07-26T12:11:25.583Z,31.51
2022-07-26T12:12:25.000Z,31.49
2022-07-26T12:13:24.987Z,31.54
2022-07-26T12:14:25.013Z,31.46
2022-07-26T12:15:24.966Z,31.51
2022-07-26T12:16:25.086Z,31.41
2022-07-26T12:17:24.946Z,31.41
2022-07-26T12:18:24.937Z,31.33
2022-07-26T12:19:24.926Z,31.33
2022-07-26T12:20:24.998Z,31.39
2022-07-26T12:21:24.902Z,31.41
2022-07-26T12:22:24.895Z,31.30
2022-07-26T12:23:24.882Z,31.41
2022-07-26T12:24:24.871Z,31.37
2022-07-26T12:25:24.897Z,31.33
2022-07-26T12:26:24.860Z,31.29
2022-07-26T12:27:24.846Z,31.33
2022-07-26T12:28:24.827Z,31.22
2022-07-26T12:29:24.826Z,31.24
2022-07-26T12:30:24.806Z,31.19
2022-07-26T12:31:24.918Z,31.15
2022-07-26T12:32:24.795Z,31.19
2022-07-26T12:33:24.778Z,31.12
2022-07-26T12:34:24.787Z,31.14
2022-07-26T12:35:24.756Z,31.22
2022-07-26T12:36:27.550Z,31.04
2022-07-26T12:37:33.716Z,31.08
2022-07-26T12:38:25.724Z,31.08
2022-07-26T12:39:24.713Z,31.08
2022-07-26T12:40:24.700Z,31.01
2022-07-26T12:41:24.691Z,31.04
2022-07-26T12:42:33.291Z,30.99
2022-07-26T12:43:25.710Z,30.86
2022-07-26T12:44:24.668Z,30.93
2022-07-26T12:45:24.653Z,30.85
2022-07-26T12:46:24.740Z,30.85
2022-07-26T12:47:24.709Z,30.78
2022-07-26T12:48:24.615Z,30.83
2022-07-26T12:49:24.735Z,30.82
2022-07-26T12:50:24.595Z,30.77
2022-07-26T12:51:24.817Z,30.67
2022-07-26T12:52:24.577Z,30.74
2022-07-26T12:53:24.562Z,30.68